Terminal Aerodrome Forecast
Issued by NWS

Home | Current Version | Previous Version | Text Only | Print | Product List | Glossary On
Versions: 1 2 3 4 5 6 7 8 9 10 11 12 13 14 15
000
FTUS45 KGJT 271132
TAFMTJ
TAF
KMTJ 271132Z 2712/2812 07004KT P6SM BKN120
     FM271400 21004KT P6SM SCT130
     FM271700 30006KT P6SM BKN120
     FM271900 30009KT P6SM VCTS BKN140CB
     FM280000 32010KT P6SM SCT100
     FM280300 02005KT P6SM FEW150=

USA.gov is the U.S. government's official web portal to all federal, state and local government web resources and services.